Aviation Digital Data Service (ADDS)

Output produced by METARs form (0734 UTC 19 February 2019)
found at http://www.aviationweather.gov/metar/data/
 
METAR text: KLAN 190653Z 32003KT 10SM CLR M13/M16 A3056 RMK AO2 SLP365 T11331161
Conditions at: KLAN (LANSING , MI, US) observed 0653 UTC 19 February 2019
Temperature: -13.3°C ( 8°F)
Dewpoint: -16.1°C ( 3°F) [RH = 79%]
Pressure (altimeter): 30.56 inches Hg (1035.0 mb)
[Sea-level pressure: 1036.5 mb]
Winds: from the NW (320 degrees) at 3 MPH (3 knots; 1.5 m/s)
Visibility: 10 or more miles (16+ km)
Ceiling: at least 12,000 feet AGL
Clouds: sky clear below 12,000 feet AGL
Weather: no significant weather observed at this time

METAR text: KLAN 190553Z 35004KT 10SM CLR M11/M15 A3054 RMK AO2 SLP358 T11111150 11067 21128 51018
Conditions at: KLAN (LANSING , MI, US) observed 0553 UTC 19 February 2019
Temperature: -11.1°C (12°F)
Dewpoint: -15.0°C ( 5°F) [RH = 73%]
Pressure (altimeter): 30.54 inches Hg (1034.3 mb)
[Sea-level pressure: 1035.8 mb]
Winds: from the N (350 degrees) at 5 MPH (4 knots; 2.1 m/s)
Visibility: 10 or more miles (16+ km)
Ceiling: at least 12,000 feet AGL
Clouds: sky clear below 12,000 feet AGL
Weather: no significant weather observed at this time

METAR text: KLAN 190453Z 29006KT 10SM CLR M11/M13 A3053 RMK AO2 SLP353 T11111133 410391128
Conditions at: KLAN (LANSING , MI, US) observed 0453 UTC 19 February 2019
Temperature: -11.1°C (12°F)
Dewpoint: -13.3°C ( 8°F) [RH = 84%]
Pressure (altimeter): 30.53 inches Hg (1033.9 mb)
[Sea-level pressure: 1035.3 mb]
Winds: from the WNW (290 degrees) at 7 MPH (6 knots; 3.1 m/s)
Visibility: 10 or more miles (16+ km)
Ceiling: at least 12,000 feet AGL
Clouds: sky clear below 12,000 feet AGL
Weather: no significant weather observed at this time

METAR text: KLAN 190353Z 00000KT 10SM CLR M10/M13 A3050 RMK AO2 SLP346 T11001133
Conditions at: KLAN (LANSING , MI, US) observed 0353 UTC 19 February 2019
Temperature: -10.0°C (14°F)
Dewpoint: -13.3°C ( 8°F) [RH = 77%]
Pressure (altimeter): 30.50 inches Hg (1032.9 mb)
[Sea-level pressure: 1034.6 mb]
Winds: calm
Visibility: 10 or more miles (16+ km)
Ceiling: at least 12,000 feet AGL
Clouds: sky clear below 12,000 feet AGL
Weather: no significant weather observed at this time

METAR text: KLAN 190253Z 00000KT 10SM CLR M11/M13 A3049 RMK AO2 SLP340 T11111133 51019
Conditions at: KLAN (LANSING , MI, US) observed 0253 UTC 19 February 2019
Temperature: -11.1°C (12°F)
Dewpoint: -13.3°C ( 8°F) [RH = 84%]
Pressure (altimeter): 30.49 inches Hg (1032.6 mb)
[Sea-level pressure: 1034.0 mb]
Winds: calm
Visibility: 10 or more miles (16+ km)
Ceiling: at least 12,000 feet AGL
Clouds: sky clear below 12,000 feet AGL
Weather: no significant weather observed at this time

METAR text: KLAN 190153Z 00000KT 10SM CLR M10/M14 A3046 RMK AO2 SLP333 T11001139
Conditions at: KLAN (LANSING , MI, US) observed 0153 UTC 19 February 2019
Temperature: -10.0°C (14°F)
Dewpoint: -13.9°C ( 7°F) [RH = 73%]
Pressure (altimeter): 30.46 inches Hg (1031.6 mb)
[Sea-level pressure: 1033.3 mb]
Winds: calm
Visibility: 10 or more miles (16+ km)
Ceiling: at least 12,000 feet AGL
Clouds: sky clear below 12,000 feet AGL
Weather: no significant weather observed at this time

METAR text: KLAN 190053Z 00000KT 10SM CLR M08/M13 A3045 RMK AO2 SLP327 T10831133
Conditions at: KLAN (LANSING , MI, US) observed 0053 UTC 19 February 2019
Temperature: -8.3°C (17°F)
Dewpoint: -13.3°C ( 8°F) [RH = 67%]
Pressure (altimeter): 30.45 inches Hg (1031.2 mb)
[Sea-level pressure: 1032.7 mb]
Winds: calm
Visibility: 10 or more miles (16+ km)
Ceiling: at least 12,000 feet AGL
Clouds: sky clear below 12,000 feet AGL
Weather: no significant weather observed at this time

METAR text: KLAN 182353Z 00000KT 10SM CLR M07/M14 A3043 RMK AO2 SLP319 T10721139 11039 21072 53028
Conditions at: KLAN (LANSING , MI, US) observed 2353 UTC 18 February 2019
Temperature: -7.2°C (19°F)
Dewpoint: -13.9°C ( 7°F) [RH = 59%]
Pressure (altimeter): 30.43 inches Hg (1030.6 mb)
[Sea-level pressure: 1031.9 mb]
Winds: calm
Visibility: 10 or more miles (16+ km)
Ceiling: at least 12,000 feet AGL
Clouds: sky clear below 12,000 feet AGL
Weather: no significant weather observed at this time

METAR text: KLAN 182253Z 36003KT 10SM CLR M06/M13 A3039 RMK AO2 SLP305 T10561128
Conditions at: KLAN (LANSING , MI, US) observed 2253 UTC 18 February 2019
Temperature: -5.6°C (22°F)
Dewpoint: -12.8°C ( 9°F) [RH = 57%]
Pressure (altimeter): 30.39 inches Hg (1029.2 mb)
[Sea-level pressure: 1030.5 mb]
Winds: from the N (360 degrees) at 3 MPH (3 knots; 1.5 m/s)
Visibility: 10 or more miles (16+ km)
Ceiling: at least 12,000 feet AGL
Clouds: sky clear below 12,000 feet AGL
Weather: no significant weather observed at this time

METAR text: KLAN 182153Z 34004KT 10SM CLR M04/M12 A3037 RMK AO2 SLP299 T10441122
Conditions at: KLAN (LANSING , MI, US) observed 2153 UTC 18 February 2019
Temperature: -4.4°C (24°F)
Dewpoint: -12.2°C (10°F) [RH = 54%]
Pressure (altimeter): 30.37 inches Hg (1028.5 mb)
[Sea-level pressure: 1029.9 mb]
Winds: from the NNW (340 degrees) at 5 MPH (4 knots; 2.1 m/s)
Visibility: 10 or more miles (16+ km)
Ceiling: at least 12,000 feet AGL
Clouds: sky clear below 12,000 feet AGL
Weather: no significant weather observed at this time

METAR text: KLAN 182053Z 31006KT 10SM CLR M04/M12 A3034 RMK AO2 SLP289 T10391117 53020
Conditions at: KLAN (LANSING , MI, US) observed 2053 UTC 18 February 2019
Temperature: -3.9°C (25°F)
Dewpoint: -11.7°C (11°F) [RH = 55%]
Pressure (altimeter): 30.34 inches Hg (1027.5 mb)
[Sea-level pressure: 1028.9 mb]
Winds: from the NW (310 degrees) at 7 MPH (6 knots; 3.1 m/s)
Visibility: 10 or more miles (16+ km)
Ceiling: at least 12,000 feet AGL
Clouds: sky clear below 12,000 feet AGL
Weather: no significant weather observed at this time

METAR text: KLAN 181953Z 32008KT 10SM SCT028 M04/M11 A3031 RMK AO2 SLP279 T10391111
Conditions at: KLAN (LANSING , MI, US) observed 1953 UTC 18 February 2019
Temperature: -3.9°C (25°F)
Dewpoint: -11.1°C (12°F) [RH = 57%]
Pressure (altimeter): 30.31 inches Hg (1026.5 mb)
[Sea-level pressure: 1027.9 mb]
Winds: from the NW (320 degrees) at 9 MPH (8 knots; 4.1 m/s)
Visibility: 10 or more miles (16+ km)
Ceiling: at least 12,000 feet AGL
Clouds: scattered clouds at 2800 feet AGL
Weather: no significant weather observed at this time

METAR text: KLAN 181853Z 31007KT 10SM FEW027 M04/M11 A3030 RMK AO2 SLP274 T10441111
Conditions at: KLAN (LANSING , MI, US) observed 1853 UTC 18 February 2019
Temperature: -4.4°C (24°F)
Dewpoint: -11.1°C (12°F) [RH = 59%]
Pressure (altimeter): 30.30 inches Hg (1026.2 mb)
[Sea-level pressure: 1027.4 mb]
Winds: from the NW (310 degrees) at 8 MPH (7 knots; 3.6 m/s)
Visibility: 10 or more miles (16+ km)
Ceiling: at least 12,000 feet AGL
Clouds: few clouds at 2700 feet AGL
Weather: no significant weather observed at this time

METAR text: KLAN 181753Z 33007KT 10SM CLR M05/M11 A3028 RMK AO2 SLP268 60001 T10501106 11050 21089 51029
Conditions at: KLAN (LANSING , MI, US) observed 1753 UTC 18 February 2019
Temperature: -5.0°C (23°F)
Dewpoint: -10.6°C (13°F) [RH = 65%]
Pressure (altimeter): 30.28 inches Hg (1025.5 mb)
[Sea-level pressure: 1026.8 mb]
Winds: from the NNW (330 degrees) at 8 MPH (7 knots; 3.6 m/s)
Visibility: 10 or more miles (16+ km)
Ceiling: at least 12,000 feet AGL
Clouds: sky clear below 12,000 feet AGL
Weather: no significant weather observed at this time

METAR text: KLAN 181653Z 34008KT 10SM CLR M06/M11 A3026 RMK AO2 SLP260 T10561106
Conditions at: KLAN (LANSING , MI, US) observed 1653 UTC 18 February 2019
Temperature: -5.6°C (22°F)
Dewpoint: -10.6°C (13°F) [RH = 68%]
Pressure (altimeter): 30.26 inches Hg (1024.8 mb)
[Sea-level pressure: 1026.0 mb]
Winds: from the NNW (340 degrees) at 9 MPH (8 knots; 4.1 m/s)
Visibility: 10 or more miles (16+ km)
Ceiling: at least 12,000 feet AGL
Clouds: sky clear below 12,000 feet AGL
Weather: no significant weather observed at this time

METAR text: KLAN 181553Z 35008KT 10SM CLR M07/M11 A3022 RMK AO2 SLP249 T10671106
Conditions at: KLAN (LANSING , MI, US) observed 1553 UTC 18 February 2019
Temperature: -6.7°C (20°F)
Dewpoint: -10.6°C (13°F) [RH = 74%]
Pressure (altimeter): 30.22 inches Hg (1023.5 mb)
[Sea-level pressure: 1024.9 mb]
Winds: from the N (350 degrees) at 9 MPH (8 knots; 4.1 m/s)
Visibility: 10 or more miles (16+ km)
Ceiling: at least 12,000 feet AGL
Clouds: sky clear below 12,000 feet AGL
Weather: no significant weather observed at this time

METAR text: KLAN 181453Z 01008KT 10SM CLR M08/M11 A3019 RMK AO2 SLP239 60001 T10781106 53039
Conditions at: KLAN (LANSING , MI, US) observed 1453 UTC 18 February 2019
Temperature: -7.8°C (18°F)
Dewpoint: -10.6°C (13°F) [RH = 80%]
Pressure (altimeter): 30.19 inches Hg (1022.4 mb)
[Sea-level pressure: 1023.9 mb]
Winds: from the N (10 degrees) at 9 MPH (8 knots; 4.1 m/s)
Visibility: 10 or more miles (16+ km)
Ceiling: at least 12,000 feet AGL
Clouds: sky clear below 12,000 feet AGL
Weather: no significant weather observed at this time

METAR text: KLAN 181353Z 35008KT 9SM OVC035 M08/M10 A3015 RMK AO2 SNE49 SLP224 P0000 T10831100
Conditions at: KLAN (LANSING , MI, US) observed 1353 UTC 18 February 2019
Temperature: -8.3°C (17°F)
Dewpoint: -10.0°C (14°F) [RH = 88%]
Pressure (altimeter): 30.15 inches Hg (1021.1 mb)
[Sea-level pressure: 1022.4 mb]
Winds: from the N (350 degrees) at 9 MPH (8 knots; 4.1 m/s)
Visibility: 9 miles (14 km)
Ceiling: 3500 feet AGL
Clouds: overcast cloud deck at 3500 feet AGL
Weather: no significant weather observed at this time

METAR text: KLAN 181347Z 34008KT 3SM -SN BR OVC039 M09/M10 A3014 RMK AO2 P0000
Conditions at: KLAN (LANSING , MI, US) observed 1347 UTC 18 February 2019
Temperature: -9.0°C (16°F)
Dewpoint: -10.0°C (14°F) [RH = 92%]
Pressure (altimeter): 30.14 inches Hg (1020.7 mb)
Winds: from the NNW (340 degrees) at 9 MPH (8 knots; 4.1 m/s)
Visibility: 3 miles ( 5 km)
Ceiling: 3900 feet AGL
Clouds: overcast cloud deck at 3900 feet AGL
Weather: -SN BR  (light snow, mist)

METAR text: KLAN 181337Z 35008KT 1 3/4SM -SN BR BKN043 OVC055 M09/M10 A3014 RMK AO2 VIS 3/4V5 P0000 T10891100
Conditions at: KLAN (LANSING , MI, US) observed 1337 UTC 18 February 2019
Temperature: -8.9°C (16°F)
Dewpoint: -10.0°C (14°F) [RH = 92%]
Pressure (altimeter): 30.14 inches Hg (1020.7 mb)
Winds: from the N (350 degrees) at 9 MPH (8 knots; 4.1 m/s)
Visibility: 1.75 miles (2.82 km)
Ceiling: 4300 feet AGL
Clouds: broken clouds at 4300 feet AGL
overcast cloud deck at 5500 feet AGL
Weather: -SN BR  (light snow, mist)

METAR text: KLAN 181318Z 34006KT 5SM -SN BR BKN031 OVC060 M09/M10 A3012 RMK AO2 P0000 T10891100
Conditions at: KLAN (LANSING , MI, US) observed 1318 UTC 18 February 2019
Temperature: -8.9°C (16°F)
Dewpoint: -10.0°C (14°F) [RH = 92%]
Pressure (altimeter): 30.12 inches Hg (1020.1 mb)
Winds: from the NNW (340 degrees) at 7 MPH (6 knots; 3.1 m/s)
Visibility: 5 miles ( 8 km)
Ceiling: 3100 feet AGL
Clouds: broken clouds at 3100 feet AGL
overcast cloud deck at 6000 feet AGL
Weather: -SN BR  (light snow, mist)

METAR text: KLAN 181314Z 35007KT 2SM -SN BR BKN027 OVC060 M09/M10 A3012 RMK AO2 P0000 T10891100
Conditions at: KLAN (LANSING , MI, US) observed 1314 UTC 18 February 2019
Temperature: -8.9°C (16°F)
Dewpoint: -10.0°C (14°F) [RH = 92%]
Pressure (altimeter): 30.12 inches Hg (1020.1 mb)
Winds: from the N (350 degrees) at 8 MPH (7 knots; 3.6 m/s)
Visibility: 2.00 miles (3.22 km)
Ceiling: 2700 feet AGL
Clouds: broken clouds at 2700 feet AGL
overcast cloud deck at 6000 feet AGL
Weather: -SN BR  (light snow, mist)

METAR text: KLAN 181305Z 33007KT 1 1/4SM -SN BR OVC025 M09/M10 A3012 RMK AO2 P0000 T10891100
Conditions at: KLAN (LANSING , MI, US) observed 1305 UTC 18 February 2019
Temperature: -8.9°C (16°F)
Dewpoint: -10.0°C (14°F) [RH = 92%]
Pressure (altimeter): 30.12 inches Hg (1020.1 mb)
Winds: from the NNW (330 degrees) at 8 MPH (7 knots; 3.6 m/s)
Visibility: 1.25 miles (2.01 km)
Ceiling: 2500 feet AGL
Clouds: overcast cloud deck at 2500 feet AGL
Weather: -SN BR  (light snow, mist)

METAR text: KLAN 181253Z 34008KT 1 3/4SM -SN BR OVC031 M09/M10 A3010 RMK AO2 SLP210 P0001 T10891100
Conditions at: KLAN (LANSING , MI, US) observed 1253 UTC 18 February 2019
Temperature: -8.9°C (16°F)
Dewpoint: -10.0°C (14°F) [RH = 92%]
Pressure (altimeter): 30.10 inches Hg (1019.4 mb)
[Sea-level pressure: 1021.0 mb]
Winds: from the NNW (340 degrees) at 9 MPH (8 knots; 4.1 m/s)
Visibility: 1.75 miles (2.82 km)
Ceiling: 3100 feet AGL
Clouds: overcast cloud deck at 3100 feet AGL
Weather: -SN BR  (light snow, mist)

METAR text: KLAN 181242Z 34008KT 4SM -SN BR OVC035 M09/M10 A3010 RMK AO2 P0001 T10891100
Conditions at: KLAN (LANSING , MI, US) observed 1242 UTC 18 February 2019
Temperature: -8.9°C (16°F)
Dewpoint: -10.0°C (14°F) [RH = 92%]
Pressure (altimeter): 30.10 inches Hg (1019.4 mb)
Winds: from the NNW (340 degrees) at 9 MPH (8 knots; 4.1 m/s)
Visibility: 4 miles ( 6 km)
Ceiling: 3500 feet AGL
Clouds: overcast cloud deck at 3500 feet AGL
Weather: -SN BR  (light snow, mist)

METAR text: KLAN 181234Z 34006KT 2 1/2SM -SN BR OVC031 M09/M10 A3009 RMK AO2 P0001 T10891100
Conditions at: KLAN (LANSING , MI, US) observed 1234 UTC 18 February 2019
Temperature: -8.9°C (16°F)
Dewpoint: -10.0°C (14°F) [RH = 92%]
Pressure (altimeter): 30.09 inches Hg (1019.0 mb)
Winds: from the NNW (340 degrees) at 7 MPH (6 knots; 3.1 m/s)
Visibility: 2.50 miles (4.02 km)
Ceiling: 3100 feet AGL
Clouds: overcast cloud deck at 3100 feet AGL
Weather: -SN BR  (light snow, mist)

METAR text: KLAN 181222Z 34006KT 1 3/4SM -SN BR OVC029 M08/M10 A3009 RMK AO2 P0001 T10831100
Conditions at: KLAN (LANSING , MI, US) observed 1222 UTC 18 February 2019
Temperature: -8.3°C (17°F)
Dewpoint: -10.0°C (14°F) [RH = 88%]
Pressure (altimeter): 30.09 inches Hg (1019.0 mb)
Winds: from the NNW (340 degrees) at 7 MPH (6 knots; 3.1 m/s)
Visibility: 1.75 miles (2.82 km)
Ceiling: 2900 feet AGL
Clouds: overcast cloud deck at 2900 feet AGL
Weather: -SN BR  (light snow, mist)

METAR text: KLAN 181217Z 34006KT 2SM -SN BR OVC033 M08/M10 A3009 RMK AO2 P0001 T10831100
Conditions at: KLAN (LANSING , MI, US) observed 1217 UTC 18 February 2019
Temperature: -8.3°C (17°F)
Dewpoint: -10.0°C (14°F) [RH = 88%]
Pressure (altimeter): 30.09 inches Hg (1019.0 mb)
Winds: from the NNW (340 degrees) at 7 MPH (6 knots; 3.1 m/s)
Visibility: 2.00 miles (3.22 km)
Ceiling: 3300 feet AGL
Clouds: overcast cloud deck at 3300 feet AGL
Weather: -SN BR  (light snow, mist)

METAR text: KLAN 181153Z 33007KT 1 1/2SM -SN OVC043 M08/M10 A3008 RMK AO2 SLP199 P0000 60003 70015 T10831100 11067 21083 53030
Conditions at: KLAN (LANSING , MI, US) observed 1153 UTC 18 February 2019
Temperature: -8.3°C (17°F)
Dewpoint: -10.0°C (14°F) [RH = 88%]
Pressure (altimeter): 30.08 inches Hg (1018.7 mb)
[Sea-level pressure: 1019.9 mb]
Winds: from the NNW (330 degrees) at 8 MPH (7 knots; 3.6 m/s)
Visibility: 1.50 miles (2.41 km)
Ceiling: 4300 feet AGL
Clouds: overcast cloud deck at 4300 feet AGL
Weather: -SN  (light snow)

METAR text: KLAN 181100Z 35006KT 1 1/2SM -SN OVC035 M08/M09 A3005 RMK AO2 P0000 T10831094
Conditions at: KLAN (LANSING , MI, US) observed 1100 UTC 18 February 2019
Temperature: -8.3°C (17°F)
Dewpoint: -9.4°C (15°F) [RH = 92%]
Pressure (altimeter): 30.05 inches Hg (1017.7 mb)
Winds: from the N (350 degrees) at 7 MPH (6 knots; 3.1 m/s)
Visibility: 1.50 miles (2.41 km)
Ceiling: 3500 feet AGL
Clouds: overcast cloud deck at 3500 feet AGL
Weather: -SN  (light snow)

METAR text: KLAN 181053Z 35007KT 1 1/4SM -SN OVC039 M08/M09 A3005 RMK AO2 SLP188 P0000 T10781094
Conditions at: KLAN (LANSING , MI, US) observed 1053 UTC 18 February 2019
Temperature: -7.8°C (18°F)
Dewpoint: -9.4°C (15°F) [RH = 88%]
Pressure (altimeter): 30.05 inches Hg (1017.7 mb)
[Sea-level pressure: 1018.8 mb]
Winds: from the N (350 degrees) at 8 MPH (7 knots; 3.6 m/s)
Visibility: 1.25 miles (2.01 km)
Ceiling: 3900 feet AGL
Clouds: overcast cloud deck at 3900 feet AGL
Weather: -SN  (light snow)

METAR text: KLAN 181014Z 34006KT 1 1/4SM -SN OVC032 M08/M09 A3002 RMK AO2 P0000 T10781094
Conditions at: KLAN (LANSING , MI, US) observed 1014 UTC 18 February 2019
Temperature: -7.8°C (18°F)
Dewpoint: -9.4°C (15°F) [RH = 88%]
Pressure (altimeter): 30.02 inches Hg (1016.7 mb)
Winds: from the NNW (340 degrees) at 7 MPH (6 knots; 3.1 m/s)
Visibility: 1.25 miles (2.01 km)
Ceiling: 3200 feet AGL
Clouds: overcast cloud deck at 3200 feet AGL
Weather: -SN  (light snow)

METAR text: KLAN 180953Z 33006KT 1 1/4SM -SN OVC026 M08/M09 A3001 RMK AO2 SLP177 P0001 T10781089
Conditions at: KLAN (LANSING , MI, US) observed 0953 UTC 18 February 2019
Temperature: -7.8°C (18°F)
Dewpoint: -8.9°C (16°F) [RH = 92%]
Pressure (altimeter): 30.01 inches Hg (1016.3 mb)
[Sea-level pressure: 1017.7 mb]
Winds: from the NNW (330 degrees) at 7 MPH (6 knots; 3.1 m/s)
Visibility: 1.25 miles (2.01 km)
Ceiling: 2600 feet AGL
Clouds: overcast cloud deck at 2600 feet AGL
Weather: -SN  (light snow)

METAR text: KLAN 180908Z 33005KT 1 1/4SM -SN OVC026 M08/M09 A3000 RMK AO2 P0000 T10781089
Conditions at: KLAN (LANSING , MI, US) observed 0908 UTC 18 February 2019
Temperature: -7.8°C (18°F)
Dewpoint: -8.9°C (16°F) [RH = 92%]
Pressure (altimeter): 30.00 inches Hg (1016.0 mb)
Winds: from the NNW (330 degrees) at 6 MPH (5 knots; 2.6 m/s)
Visibility: 1.25 miles (2.01 km)
Ceiling: 2600 feet AGL
Clouds: overcast cloud deck at 2600 feet AGL
Weather: -SN  (light snow)

METAR text: KLAN 180853Z 35008KT 1 1/4SM -SN OVC032 M08/M09 A2999 RMK AO2 SLP169 P0001 60002 T10781089 53019
Conditions at: KLAN (LANSING , MI, US) observed 0853 UTC 18 February 2019
Temperature: -7.8°C (18°F)
Dewpoint: -8.9°C (16°F) [RH = 92%]
Pressure (altimeter): 29.99 inches Hg (1015.7 mb)
[Sea-level pressure: 1016.9 mb]
Winds: from the N (350 degrees) at 9 MPH (8 knots; 4.1 m/s)
Visibility: 1.25 miles (2.01 km)
Ceiling: 3200 feet AGL
Clouds: overcast cloud deck at 3200 feet AGL
Weather: -SN  (light snow)

METAR text: KLAN 180837Z 34007KT 1 1/4SM -SN OVC032 M07/M09 A2998 RMK AO2 P0000 T10721089
Conditions at: KLAN (LANSING , MI, US) observed 0837 UTC 18 February 2019
Temperature: -7.2°C (19°F)
Dewpoint: -8.9°C (16°F) [RH = 88%]
Pressure (altimeter): 29.98 inches Hg (1015.3 mb)
Winds: from the NNW (340 degrees) at 8 MPH (7 knots; 3.6 m/s)
Visibility: 1.25 miles (2.01 km)
Ceiling: 3200 feet AGL
Clouds: overcast cloud deck at 3200 feet AGL
Weather: -SN  (light snow)

METAR text: KLAN 180803Z 36006KT 1 1/4SM -SN SCT012 OVC026 M07/M09 A2997 RMK AO2 P0000 T10721089
Conditions at: KLAN (LANSING , MI, US) observed 0803 UTC 18 February 2019
Temperature: -7.2°C (19°F)
Dewpoint: -8.9°C (16°F) [RH = 88%]
Pressure (altimeter): 29.97 inches Hg (1015.0 mb)
Winds: from the N (360 degrees) at 7 MPH (6 knots; 3.1 m/s)
Visibility: 1.25 miles (2.01 km)
Ceiling: 2600 feet AGL
Clouds: scattered clouds at 1200 feet AGL
overcast cloud deck at 2600 feet AGL
Weather: -SN  (light snow)

METAR text: KLAN 180753Z 35007KT 1 1/4SM -SN FEW012 OVC030 M07/M09 A2997 RMK AO2 SNE38B49 SLP161 P0000 T10721089
Conditions at: KLAN (LANSING , MI, US) observed 0753 UTC 18 February 2019
Temperature: -7.2°C (19°F)
Dewpoint: -8.9°C (16°F) [RH = 88%]
Pressure (altimeter): 29.97 inches Hg (1015.0 mb)
[Sea-level pressure: 1016.1 mb]
Winds: from the N (350 degrees) at 8 MPH (7 knots; 3.6 m/s)
Visibility: 1.25 miles (2.01 km)
Ceiling: 3000 feet AGL
Clouds: few clouds at 1200 feet AGL
overcast cloud deck at 3000 feet AGL
Weather: -SN  (light snow)

METAR text: KLAN 180738Z 01008KT 1 1/4SM SCT013 OVC032 M07/M09 A2996 RMK AO2 SNE38 P0000 T10721089
Conditions at: KLAN (LANSING , MI, US) observed 0738 UTC 18 February 2019
Temperature: -7.2°C (19°F)
Dewpoint: -8.9°C (16°F) [RH = 88%]
Pressure (altimeter): 29.96 inches Hg (1014.6 mb)
Winds: from the N (10 degrees) at 9 MPH (8 knots; 4.1 m/s)
Visibility: 1.25 miles (2.01 km)
Ceiling: 3200 feet AGL
Clouds: scattered clouds at 1300 feet AGL
overcast cloud deck at 3200 feet AGL
Weather: no significant weather observed at this time

METAR text: KLAN 180719Z 36008KT 4SM -SN BKN012 OVC034 M07/M09 A2995 RMK AO2 P0000 T10671089
Conditions at: KLAN (LANSING , MI, US) observed 0719 UTC 18 February 2019
Temperature: -6.7°C (20°F)
Dewpoint: -8.9°C (16°F) [RH = 84%]
Pressure (altimeter): 29.95 inches Hg (1014.3 mb)
Winds: from the N (360 degrees) at 9 MPH (8 knots; 4.1 m/s)
Visibility: 4 miles ( 6 km)
Ceiling: 1200 feet AGL
Clouds: broken clouds at 1200 feet AGL
overcast cloud deck at 3400 feet AGL
Weather: -SN  (light snow)

METAR text: KLAN 180709Z 01008KT 2 1/2SM -SN BKN012 OVC036 M07/M08 A2995 RMK AO2 P0000 T10671083
Conditions at: KLAN (LANSING , MI, US) observed 0709 UTC 18 February 2019
Temperature: -6.7°C (20°F)
Dewpoint: -8.3°C (17°F) [RH = 88%]
Pressure (altimeter): 29.95 inches Hg (1014.3 mb)
Winds: from the N (10 degrees) at 9 MPH (8 knots; 4.1 m/s)
Visibility: 2.50 miles (4.02 km)
Ceiling: 1200 feet AGL
Clouds: broken clouds at 1200 feet AGL
overcast cloud deck at 3600 feet AGL
Weather: -SN  (light snow)

METAR text: KLAN 180653Z 01010KT 2 1/2SM -SN SCT012 OVC040 M07/M08 A2995 RMK AO2 SLP154 P0001 T10671083
Conditions at: KLAN (LANSING , MI, US) observed 0653 UTC 18 February 2019
Temperature: -6.7°C (20°F)
Dewpoint: -8.3°C (17°F) [RH = 88%]
Pressure (altimeter): 29.95 inches Hg (1014.3 mb)
[Sea-level pressure: 1015.4 mb]
Winds: from the N (10 degrees) at 12 MPH (10 knots; 5.1 m/s)
Visibility: 2.50 miles (4.02 km)
Ceiling: 4000 feet AGL
Clouds: scattered clouds at 1200 feet AGL
overcast cloud deck at 4000 feet AGL
Weather: -SN  (light snow)

METAR text: KLAN 180642Z 36007KT 3SM -SN SCT014 OVC042 M07/M08 A2995 RMK AO2 P0001 T10671083
Conditions at: KLAN (LANSING , MI, US) observed 0642 UTC 18 February 2019
Temperature: -6.7°C (20°F)
Dewpoint: -8.3°C (17°F) [RH = 88%]
Pressure (altimeter): 29.95 inches Hg (1014.3 mb)
Winds: from the N (360 degrees) at 8 MPH (7 knots; 3.6 m/s)
Visibility: 3 miles ( 5 km)
Ceiling: 4200 feet AGL
Clouds: scattered clouds at 1400 feet AGL
overcast cloud deck at 4200 feet AGL
Weather: -SN  (light snow)

METAR text: KLAN 180618Z 01008KT 2SM -SN SCT010 OVC042 M07/M08 A2994 RMK AO2 P0000 T10671078
Conditions at: KLAN (LANSING , MI, US) observed 0618 UTC 18 February 2019
Temperature: -6.7°C (20°F)
Dewpoint: -7.8°C (18°F) [RH = 92%]
Pressure (altimeter): 29.94 inches Hg (1014.0 mb)
Winds: from the N (10 degrees) at 9 MPH (8 knots; 4.1 m/s)
Visibility: 2.00 miles (3.22 km)
Ceiling: 4200 feet AGL
Clouds: scattered clouds at 1000 feet AGL
overcast cloud deck at 4200 feet AGL
Weather: -SN  (light snow)

METAR text: KLAN 180553Z 36006KT 3SM -SN OVC037 M07/M08 A2993 RMK AO2 SLP149 P0001 60004 T10671078 11056 21067 53011
Conditions at: KLAN (LANSING , MI, US) observed 0553 UTC 18 February 2019
Temperature: -6.7°C (20°F)
Dewpoint: -7.8°C (18°F) [RH = 92%]
Pressure (altimeter): 29.93 inches Hg (1013.6 mb)
[Sea-level pressure: 1014.9 mb]
Winds: from the N (360 degrees) at 7 MPH (6 knots; 3.1 m/s)
Visibility: 3 miles ( 5 km)
Ceiling: 3700 feet AGL
Clouds: overcast cloud deck at 3700 feet AGL
Weather: -SN  (light snow)

METAR text: KLAN 180529Z 01006KT 2SM -SN OVC031 M07/M08 A2992 RMK AO2 P0001 T10671078
Conditions at: KLAN (LANSING , MI, US) observed 0529 UTC 18 February 2019
Temperature: -6.7°C (20°F)
Dewpoint: -7.8°C (18°F) [RH = 92%]
Pressure (altimeter): 29.92 inches Hg (1013.3 mb)
Winds: from the N (10 degrees) at 7 MPH (6 knots; 3.1 m/s)
Visibility: 2.00 miles (3.22 km)
Ceiling: 3100 feet AGL
Clouds: overcast cloud deck at 3100 feet AGL
Weather: -SN  (light snow)

METAR text: KLAN 180510Z 01006KT 2SM -SN OVC027 M07/M08 A2992 RMK AO2 P0001 T10671078
Conditions at: KLAN (LANSING , MI, US) observed 0510 UTC 18 February 2019
Temperature: -6.7°C (20°F)
Dewpoint: -7.8°C (18°F) [RH = 92%]
Pressure (altimeter): 29.92 inches Hg (1013.3 mb)
Winds: from the N (10 degrees) at 7 MPH (6 knots; 3.1 m/s)
Visibility: 2.00 miles (3.22 km)
Ceiling: 2700 feet AGL
Clouds: overcast cloud deck at 2700 feet AGL
Weather: -SN  (light snow)

METAR text: KLAN 180453Z 01007KT 1 1/2SM -SN OVC021 M06/M08 A2992 RMK AO2 SLP143 P0001 T10611078 410501106
Conditions at: KLAN (LANSING , MI, US) observed 0453 UTC 18 February 2019
Temperature: -6.1°C (21°F)
Dewpoint: -7.8°C (18°F) [RH = 88%]
Pressure (altimeter): 29.92 inches Hg (1013.3 mb)
[Sea-level pressure: 1014.3 mb]
Winds: from the N (10 degrees) at 8 MPH (7 knots; 3.6 m/s)
Visibility: 1.50 miles (2.41 km)
Ceiling: 2100 feet AGL
Clouds: overcast cloud deck at 2100 feet AGL
Weather: -SN  (light snow)

METAR text: KLAN 180410Z 03009KT 1 1/2SM -SN FEW014 OVC022 M06/M08 A2991 RMK AO2 P0000 T10611083
Conditions at: KLAN (LANSING , MI, US) observed 0410 UTC 18 February 2019
Temperature: -6.1°C (21°F)
Dewpoint: -8.3°C (17°F) [RH = 84%]
Pressure (altimeter): 29.91 inches Hg (1013.0 mb)
Winds: from the NNE (30 degrees) at 10 MPH (9 knots; 4.6 m/s)
Visibility: 1.50 miles (2.41 km)
Ceiling: 2200 feet AGL
Clouds: few clouds at 1400 feet AGL
overcast cloud deck at 2200 feet AGL
Weather: -SN  (light snow)

METAR text: KLAN 180401Z 04009KT 2SM -SN FEW013 OVC026 M06/M08 A2991 RMK AO2 P0000 T10611083
Conditions at: KLAN (LANSING , MI, US) observed 0401 UTC 18 February 2019
Temperature: -6.1°C (21°F)
Dewpoint: -8.3°C (17°F) [RH = 84%]
Pressure (altimeter): 29.91 inches Hg (1013.0 mb)
Winds: from the NE (40 degrees) at 10 MPH (9 knots; 4.6 m/s)
Visibility: 2.00 miles (3.22 km)
Ceiling: 2600 feet AGL
Clouds: few clouds at 1300 feet AGL
overcast cloud deck at 2600 feet AGL
Weather: -SN  (light snow)

METAR text: KLAN 180353Z 03012KT 2 1/2SM -SN SCT013 OVC030 M06/M08 A2991 RMK AO2 SLP140 P0001 T10611083
Conditions at: KLAN (LANSING , MI, US) observed 0353 UTC 18 February 2019
Temperature: -6.1°C (21°F)
Dewpoint: -8.3°C (17°F) [RH = 84%]
Pressure (altimeter): 29.91 inches Hg (1013.0 mb)
[Sea-level pressure: 1014.0 mb]
Winds: from the NNE (30 degrees) at 14 MPH (12 knots; 6.2 m/s)
Visibility: 2.50 miles (4.02 km)
Ceiling: 3000 feet AGL
Clouds: scattered clouds at 1300 feet AGL
overcast cloud deck at 3000 feet AGL
Weather: -SN  (light snow)

METAR text: KLAN 180324Z 03008KT 2 1/2SM -SN FEW013 BKN046 OVC060 M06/M08 A2991 RMK AO2 P0001 T10611078
Conditions at: KLAN (LANSING , MI, US) observed 0324 UTC 18 February 2019
Temperature: -6.1°C (21°F)
Dewpoint: -7.8°C (18°F) [RH = 88%]
Pressure (altimeter): 29.91 inches Hg (1013.0 mb)
Winds: from the NNE (30 degrees) at 9 MPH (8 knots; 4.1 m/s)
Visibility: 2.50 miles (4.02 km)
Ceiling: 4600 feet AGL
Clouds: few clouds at 1300 feet AGL
broken clouds at 4600 feet AGL
overcast cloud deck at 6000 feet AGL
Weather: -SN  (light snow)

METAR text: KLAN 180253Z 03010KT 3SM -SN SCT013 BKN048 OVC060 M06/M08 A2990 RMK AO2 SLP137 P0000 60001 T10611078 50008
Conditions at: KLAN (LANSING , MI, US) observed 0253 UTC 18 February 2019
Temperature: -6.1°C (21°F)
Dewpoint: -7.8°C (18°F) [RH = 88%]
Pressure (altimeter): 29.90 inches Hg (1012.6 mb)
[Sea-level pressure: 1013.7 mb]
Winds: from the NNE (30 degrees) at 12 MPH (10 knots; 5.1 m/s)
Visibility: 3 miles ( 5 km)
Ceiling: 4800 feet AGL
Clouds: scattered clouds at 1300 feet AGL
broken clouds at 4800 feet AGL
overcast cloud deck at 6000 feet AGL
Weather: -SN  (light snow)

METAR text: KLAN 180153Z 02006KT 4SM -SN FEW010 SCT015 OVC041 M06/M07 A2990 RMK AO2 SLP137 P0001 T10561072
Conditions at: KLAN (LANSING , MI, US) observed 0153 UTC 18 February 2019
Temperature: -5.6°C (22°F)
Dewpoint: -7.2°C (19°F) [RH = 88%]
Pressure (altimeter): 29.90 inches Hg (1012.6 mb)
[Sea-level pressure: 1013.7 mb]
Winds: from the NNE (20 degrees) at 7 MPH (6 knots; 3.1 m/s)
Visibility: 4 miles ( 6 km)
Ceiling: 4100 feet AGL
Clouds: few clouds at 1000 feet AGL
scattered clouds at 1500 feet AGL
overcast cloud deck at 4100 feet AGL
Weather: -SN  (light snow)

METAR text: KLAN 180053Z 04010KT 6SM -SN FEW011 OVC040 M06/M08 A2990 RMK AO2 SNE11B50 SLP136 P0000 T10561078
Conditions at: KLAN (LANSING , MI, US) observed 0053 UTC 18 February 2019
Temperature: -5.6°C (22°F)
Dewpoint: -7.8°C (18°F) [RH = 84%]
Pressure (altimeter): 29.90 inches Hg (1012.6 mb)
[Sea-level pressure: 1013.6 mb]
Winds: from the NE (40 degrees) at 12 MPH (10 knots; 5.1 m/s)
Visibility: 6 miles (10 km)
Ceiling: 4000 feet AGL
Clouds: few clouds at 1100 feet AGL
overcast cloud deck at 4000 feet AGL
Weather: -SN  (light snow)

METAR text: KLAN 180003Z 04010KT 5SM -SN BR FEW020 BKN043 OVC060 M06/M08 A2988 RMK AO2 P0000 T10561078
Conditions at: KLAN (LANSING , MI, US) observed 0003 UTC 18 February 2019
Temperature: -5.6°C (22°F)
Dewpoint: -7.8°C (18°F) [RH = 84%]
Pressure (altimeter): 29.88 inches Hg (1011.9 mb)
Winds: from the NE (40 degrees) at 12 MPH (10 knots; 5.1 m/s)
Visibility: 5 miles ( 8 km)
Ceiling: 4300 feet AGL
Clouds: few clouds at 2000 feet AGL
broken clouds at 4300 feet AGL
overcast cloud deck at 6000 feet AGL
Weather: -SN BR  (light snow, mist)

METAR text: KLAN 172353Z 04010KT 4SM -SN BR FEW015 BKN020 OVC060 M06/M08 A2987 RMK AO2 SLP128 P0001 60007 T10561078 11050 21056 53003
Conditions at: KLAN (LANSING , MI, US) observed 2353 UTC 17 February 2019
Temperature: -5.6°C (22°F)
Dewpoint: -7.8°C (18°F) [RH = 84%]
Pressure (altimeter): 29.87 inches Hg (1011.6 mb)
[Sea-level pressure: 1012.8 mb]
Winds: from the NE (40 degrees) at 12 MPH (10 knots; 5.1 m/s)
Visibility: 4 miles ( 6 km)
Ceiling: 2000 feet AGL
Clouds: few clouds at 1500 feet AGL
broken clouds at 2000 feet AGL
overcast cloud deck at 6000 feet AGL
Weather: -SN BR  (light snow, mist)

METAR text: KLAN 172341Z 04009KT 5SM -SN BR BKN016 OVC060 M06/M07 A2987 RMK AO2 P0001 T10561072
Conditions at: KLAN (LANSING , MI, US) observed 2341 UTC 17 February 2019
Temperature: -5.6°C (22°F)
Dewpoint: -7.2°C (19°F) [RH = 88%]
Pressure (altimeter): 29.87 inches Hg (1011.6 mb)
Winds: from the NE (40 degrees) at 10 MPH (9 knots; 4.6 m/s)
Visibility: 5 miles ( 8 km)
Ceiling: 1600 feet AGL
Clouds: broken clouds at 1600 feet AGL
overcast cloud deck at 6000 feet AGL
Weather: -SN BR  (light snow, mist)

METAR text: KLAN 172331Z 05010KT 4SM -SN BR BKN014 OVC020 M06/M07 A2986 RMK AO2 P0001 T10561072
Conditions at: KLAN (LANSING , MI, US) observed 2331 UTC 17 February 2019
Temperature: -5.6°C (22°F)
Dewpoint: -7.2°C (19°F) [RH = 88%]
Pressure (altimeter): 29.86 inches Hg (1011.3 mb)
Winds: from the NE (50 degrees) at 12 MPH (10 knots; 5.1 m/s)
Visibility: 4 miles ( 6 km)
Ceiling: 1400 feet AGL
Clouds: broken clouds at 1400 feet AGL
overcast cloud deck at 2000 feet AGL
Weather: -SN BR  (light snow, mist)

METAR text: KLAN 172304Z 06011KT 2 1/2SM -SN BR OVC015 M06/M07 A2984 RMK AO2 P0000 T10561072
Conditions at: KLAN (LANSING , MI, US) observed 2304 UTC 17 February 2019
Temperature: -5.6°C (22°F)
Dewpoint: -7.2°C (19°F) [RH = 88%]
Pressure (altimeter): 29.84 inches Hg (1010.6 mb)
Winds: from the ENE (60 degrees) at 13 MPH (11 knots; 5.7 m/s)
Visibility: 2.50 miles (4.02 km)
Ceiling: 1500 feet AGL
Clouds: overcast cloud deck at 1500 feet AGL
Weather: -SN BR  (light snow, mist)

METAR text: KLAN 172253Z 06010KT 7SM -SN OVC013 M06/M07 A2984 RMK AO2 SNB53 SLP119 P0000 T10561072
Conditions at: KLAN (LANSING , MI, US) observed 2253 UTC 17 February 2019
Temperature: -5.6°C (22°F)
Dewpoint: -7.2°C (19°F) [RH = 88%]
Pressure (altimeter): 29.84 inches Hg (1010.6 mb)
[Sea-level pressure: 1011.9 mb]
Winds: from the ENE (60 degrees) at 12 MPH (10 knots; 5.1 m/s)
Visibility: 7 miles (11 km)
Ceiling: 1300 feet AGL
Clouds: overcast cloud deck at 1300 feet AGL
Weather: -SN  (light snow)

METAR text: KLAN 172153Z 06014KT 9SM OVC014 M05/M07 A2984 RMK AO2 SNE17 SLP116 P0000 T10501072
Conditions at: KLAN (LANSING , MI, US) observed 2153 UTC 17 February 2019
Temperature: -5.0°C (23°F)
Dewpoint: -7.2°C (19°F) [RH = 85%]
Pressure (altimeter): 29.84 inches Hg (1010.6 mb)
[Sea-level pressure: 1011.6 mb]
Winds: from the ENE (60 degrees) at 16 MPH (14 knots; 7.2 m/s)
Visibility: 9 miles (14 km)
Ceiling: 1400 feet AGL
Clouds: overcast cloud deck at 1400 feet AGL
Weather: no significant weather observed at this time

METAR text: KLAN 172119Z 06012KT 4SM BR BKN011 BKN019 OVC060 M05/M07 A2985 RMK AO2 SNE17 P0000 T10501067
Conditions at: KLAN (LANSING , MI, US) observed 2119 UTC 17 February 2019
Temperature: -5.0°C (23°F)
Dewpoint: -6.7°C (20°F) [RH = 88%]
Pressure (altimeter): 29.85 inches Hg (1010.9 mb)
Winds: from the ENE (60 degrees) at 14 MPH (12 knots; 6.2 m/s)
Visibility: 4 miles ( 6 km)
Ceiling: 1100 feet AGL
Clouds: broken clouds at 1100 feet AGL
broken clouds at 1900 feet AGL
overcast cloud deck at 6000 feet AGL
Weather: BR  (mist)

METAR text: KLAN 172111Z 06012KT 3SM -SN BR FEW009 SCT013 OVC060 M05/M07 A2986 RMK AO2 P0000 T10501067
Conditions at: KLAN (LANSING , MI, US) observed 2111 UTC 17 February 2019
Temperature: -5.0°C (23°F)
Dewpoint: -6.7°C (20°F) [RH = 88%]
Pressure (altimeter): 29.86 inches Hg (1011.3 mb)
Winds: from the ENE (60 degrees) at 14 MPH (12 knots; 6.2 m/s)
Visibility: 3 miles ( 5 km)
Ceiling: 6000 feet AGL
Clouds: few clouds at 900 feet AGL
scattered clouds at 1300 feet AGL
overcast cloud deck at 6000 feet AGL
Weather: -SN BR  (light snow, mist)

METAR text: KLAN 172108Z 06011KT 2 1/2SM -SN BR SCT011 OVC060 M05/M07 A2986 RMK AO2 P0000 T10501067
Conditions at: KLAN (LANSING , MI, US) observed 2108 UTC 17 February 2019
Temperature: -5.0°C (23°F)
Dewpoint: -6.7°C (20°F) [RH = 88%]
Pressure (altimeter): 29.86 inches Hg (1011.3 mb)
Winds: from the ENE (60 degrees) at 13 MPH (11 knots; 5.7 m/s)
Visibility: 2.50 miles (4.02 km)
Ceiling: 6000 feet AGL
Clouds: scattered clouds at 1100 feet AGL
overcast cloud deck at 6000 feet AGL
Weather: -SN BR  (light snow, mist)

METAR text: KLAN 172059Z 05011KT 1 1/2SM R28L/6000VP6000FT -SN BR BKN011 OVC060 M05/M07 A2986 RMK AO2 P0000 T10501067
Conditions at: KLAN (LANSING , MI, US) observed 2059 UTC 17 February 2019
Temperature: -5.0°C (23°F)
Dewpoint: -6.7°C (20°F) [RH = 88%]
Pressure (altimeter): 29.86 inches Hg (1011.3 mb)
Winds: from the NE (50 degrees) at 13 MPH (11 knots; 5.7 m/s)
Visibility: 1.50 miles (2.41 km)
Ceiling: 1100 feet AGL
Clouds: broken clouds at 1100 feet AGL
overcast cloud deck at 6000 feet AGL
Weather: -SN BR  (light snow, mist)

METAR text: KLAN 172053Z 05009KT 3/4SM R28L/2800VP6000FT -SN BR BKN011 OVC060 M05/M07 A2986 RMK AO2 SLP125 P0002 60006 T10501067 58029
Conditions at: KLAN (LANSING , MI, US) observed 2053 UTC 17 February 2019
Temperature: -5.0°C (23°F)
Dewpoint: -6.7°C (20°F) [RH = 88%]
Pressure (altimeter): 29.86 inches Hg (1011.3 mb)
[Sea-level pressure: 1012.5 mb]
Winds: from the NE (50 degrees) at 10 MPH (9 knots; 4.6 m/s)
Visibility: 0.75 miles (1.21 km)
Ceiling: 1100 feet AGL
Clouds: broken clouds at 1100 feet AGL
overcast cloud deck at 6000 feet AGL
Weather: -SN BR  (light snow, mist)

METAR text: KLAN 172046Z 05009KT 1/4SM R28L/2400V3500FT SN FZFG VV010 M05/M07 A2986 RMK AO2 P0002 T10501067
Conditions at: KLAN (LANSING , MI, US) observed 2046 UTC 17 February 2019
Temperature: -5.0°C (23°F)
Dewpoint: -6.7°C (20°F) [RH = 88%]
Pressure (altimeter): 29.86 inches Hg (1011.3 mb)
Winds: from the NE (50 degrees) at 10 MPH (9 knots; 4.6 m/s)
Visibility: 0.25 miles (0.40 km)
Ceiling: indefinite ceiling with vertical visibility of 1000 feet AGL
Clouds: obscured sky
Weather: SN FZFG  (moderate snow, freezing fog)

METAR text: KLAN 172036Z 04011KT 1/2SM R28L/3000V4500FT SN FZFG VV011 M05/M07 A2987 RMK AO2 P0001 T10501067
Conditions at: KLAN (LANSING , MI, US) observed 2036 UTC 17 February 2019
Temperature: -5.0°C (23°F)
Dewpoint: -6.7°C (20°F) [RH = 88%]
Pressure (altimeter): 29.87 inches Hg (1011.6 mb)
Winds: from the NE (40 degrees) at 13 MPH (11 knots; 5.7 m/s)
Visibility: 0.50 miles (0.80 km)
Ceiling: indefinite ceiling with vertical visibility of 1100 feet AGL
Clouds: obscured sky
Weather: SN FZFG  (moderate snow, freezing fog)

METAR text: KLAN 172028Z 05010KT 1/4SM R28L/2000V3500FT SN FZFG VV013 M05/M07 A2987 RMK AO2 P0001 T10501067
Conditions at: KLAN (LANSING , MI, US) observed 2028 UTC 17 February 2019
Temperature: -5.0°C (23°F)
Dewpoint: -6.7°C (20°F) [RH = 88%]
Pressure (altimeter): 29.87 inches Hg (1011.6 mb)
Winds: from the NE (50 degrees) at 12 MPH (10 knots; 5.1 m/s)
Visibility: 0.25 miles (0.40 km)
Ceiling: indefinite ceiling with vertical visibility of 1300 feet AGL
Clouds: obscured sky
Weather: SN FZFG  (moderate snow, freezing fog)

METAR text: KLAN 172020Z 05013KT 1/4SM R28L/2000VP6000FT SN FZFG BKN015 OVC037 M05/M07 A2987 RMK AO2 P0000 T10501067
Conditions at: KLAN (LANSING , MI, US) observed 2020 UTC 17 February 2019
Temperature: -5.0°C (23°F)
Dewpoint: -6.7°C (20°F) [RH = 88%]
Pressure (altimeter): 29.87 inches Hg (1011.6 mb)
Winds: from the NE (50 degrees) at 15 MPH (13 knots; 6.7 m/s)
Visibility: 0.25 miles (0.40 km)
Ceiling: 1500 feet AGL
Clouds: broken clouds at 1500 feet AGL
overcast cloud deck at 3700 feet AGL
Weather: SN FZFG  (moderate snow, freezing fog)

METAR text: KLAN 172013Z 06013KT 1 1/4SM R28L/4000VP6000FT -SN BR BKN022 OVC037 M05/M07 A2987 RMK AO2 PRESFR P0000 T10501072
Conditions at: KLAN (LANSING , MI, US) observed 2013 UTC 17 February 2019
Temperature: -5.0°C (23°F)
Dewpoint: -7.2°C (19°F) [RH = 85%]
Pressure (altimeter): 29.87 inches Hg (1011.6 mb)
Winds: from the ENE (60 degrees) at 15 MPH (13 knots; 6.7 m/s)
Visibility: 1.25 miles (2.01 km)
Ceiling: 2200 feet AGL
Clouds: broken clouds at 2200 feet AGL
overcast cloud deck at 3700 feet AGL
Weather: -SN BR  (light snow, mist)

METAR text: KLAN 171953Z 05011KT 1 3/4SM -SN BR OVC044 M05/M07 A2990 RMK AO2 SNE1859B41 SLP137 P0000 T10501072
Conditions at: KLAN (LANSING , MI, US) observed 1953 UTC 17 February 2019
Temperature: -5.0°C (23°F)
Dewpoint: -7.2°C (19°F) [RH = 85%]
Pressure (altimeter): 29.90 inches Hg (1012.6 mb)
[Sea-level pressure: 1013.7 mb]
Winds: from the NE (50 degrees) at 13 MPH (11 knots; 5.7 m/s)
Visibility: 1.75 miles (2.82 km)
Ceiling: 4400 feet AGL
Clouds: overcast cloud deck at 4400 feet AGL
Weather: -SN BR  (light snow, mist)

Forecast for: KLAN (LANSING , MI, US)
Text: KLAN 190540Z 1906/2006 VRB05KT P6SM SKC
Forecast period: 0600 to 1600 UTC 19 February 2019
Forecast type: FROM: standard forecast or significant change
Winds: variable direction winds at 6 MPH (5 knots; 2.6 m/s)
Visibility: 6 or more miles 10+ km)
Clouds: clear skies
Weather: no significant weather forecast for this period
Text: FM191600 20004KT P6SM BKN040
Forecast period: 1600 UTC 19 February 2019 to 0600 UTC 20 February 2019
Forecast type: FROM: standard forecast or significant change
Winds: from the SSW (200 degrees) at 5 MPH (4 knots; 2.1 m/s)
Visibility: 6 or more miles 10+ km)
Ceiling: 4000 feet AGL
Clouds: broken clouds at 4000 feet AGL
Weather: no significant weather forecast for this period